Kennedy, New York
Current Conditions -  °F | °C
As of 8:35 PM on Tuesday 27 Jan 2015 (Local Time) from KJHW Reporting Station
Clear Clear  
Wind Chill:   Ceiling: Unl
Heat Index: 10°   Visibility: 10mi
Dew Point:   Wind: 7mph
Humidity: 79%   Direction: 350°N
Pressure: 30"   Gusts: NA
Location:  42.16°N, 79.1°W
Report Text: KJHW 280135Z 35006KT 10SM CLR M12/M15 A3000 RMK AO1
Loading
Personal Weather Stations






























Interactive Weather Map New forecast layout! Learn more

10-Day Weather Forecast

Advertisements
Track Severe Weather on mobile